Time;durP1;ratioP1;P1;durP2;ratioP2;P2;SDS_P1;SDS_P2;PMS_P1;PMS_P2;Temp;Humidity;BMP_temperature;BMP_pressure;BME280_temperature;BME280_humidity;BME280_pressure;Samples;Min_cycle;Max_cycle;Signal;HPM_P1;HPM_P2
2022/09/20 00:01:54;;;;;;;2.47;1.35;;;17.20;93.70;;;;;;5113745;28;20055;-22
2022/09/20 00:04:20;;;;;;;2.97;1.60;;;17.20;93.70;;;;;;5113850;28;20031;-22
2022/09/20 00:06:45;;;;;;;2.78;1.40;;;17.20;93.70;;;;;;5113724;28;20020;-22
2022/09/20 00:09:11;;;;;;;2.03;1.20;;;17.20;93.70;;;;;;5113517;28;20031;-21
2022/09/20 00:11:37;;;;;;;3.38;1.38;;;17.20;93.70;;;;;;5113484;28;20023;-23
2022/09/20 00:14:07;;;;;;;2.05;1.20;;;17.10;93.60;;;;;;5113689;28;20683;-21
2022/09/20 00:16:36;;;;;;;2.47;1.27;;;17.10;93.60;;;;;;5113578;28;20028;-21
2022/09/20 00:19:04;;;;;;;2.47;1.30;;;17.10;93.60;;;;;;5113620;28;20027;-22
2022/09/20 00:21:31;;;;;;;2.72;1.20;;;17.10;93.60;;;;;;5113379;28;20039;-24
2022/09/20 00:23:57;;;;;;;2.80;1.67;;;17.10;93.60;;;;;;5113368;28;20024;-21
2022/09/20 00:26:25;;;;;;;2.35;1.42;;;17.10;93.60;;;;;;5111192;22;20056;-26
2022/09/20 00:28:50;;;;;;;2.75;1.65;;;17.10;93.60;;;;;;5032821;28;20480;-25
2022/09/20 00:31:17;;;;;;;2.38;1.40;;;17.10;93.60;;;;;;5032714;28;20025;-26
2022/09/20 00:36:27;;;;;;;2.55;1.40;;;17.10;93.50;;;;;;5032780;28;20152;-25
2022/09/20 00:38:56;;;;;;;1.63;1.10;;;17.10;93.50;;;;;;5031969;28;20072;-25
2022/09/20 00:41:22;;;;;;;2.58;1.20;;;17.10;93.50;;;;;;5032567;28;20033;-25
2022/09/20 00:43:48;;;;;;;2.97;1.30;;;17.10;93.50;;;;;;5032574;28;20048;-25
2022/09/20 00:46:42;;;;;;;1.67;1.10;;;17.10;93.50;;;;;;5032427;28;20025;-25
2022/09/20 00:49:19;;;;;;;2.45;1.30;;;17.10;93.40;;;;;;5032223;28;20475;-25
2022/09/20 00:51:49;;;;;;;1.73;0.82;;;17.10;93.40;;;;;;5032391;28;20033;-25
2022/09/20 00:54:17;;;;;;;2.97;1.10;;;17.10;93.40;;;;;;5032357;28;20504;-25
2022/09/20 00:56:43;;;;;;;2.45;1.15;;;17.10;93.40;;;;;;5032334;28;20100;-25
2022/09/20 00:59:27;;;;;;;2.70;1.20;;;17.10;93.40;;;;;;5032158;28;20033;-25
2022/09/20 01:02:01;;;;;;;1.52;0.95;;;17.10;93.40;;;;;;5032287;28;20022;-25
2022/09/20 01:04:28;;;;;;;2.60;1.17;;;17.10;93.40;;;;;;5032231;28;20379;-26
2022/09/20 01:06:59;;;;;;;1.73;1.08;;;17.00;93.40;;;;;;5032145;28;20021;-25
2022/09/20 01:09:25;;;;;;;1.50;1.00;;;17.00;93.40;;;;;;5030732;28;20025;-26
2022/09/20 01:11:54;;;;;;;2.05;1.10;;;17.00;93.40;;;;;;5031966;28;20176;-25
2022/09/20 01:14:21;;;;;;;1.80;0.90;;;17.00;93.40;;;;;;5032105;28;20018;-26
2022/09/20 01:16:47;;;;;;;3.80;1.00;;;17.00;93.30;;;;;;5032002;28;20013;-26
2022/09/20 01:19:26;;;;;;;3.05;1.10;;;17.10;93.30;;;;;;5031871;28;20474;-25
2022/09/20 01:21:52;;;;;;;3.20;1.00;;;17.10;93.30;;;;;;5032495;28;20027;-26
2022/09/20 01:24:42;;;;;;;2.25;1.30;;;17.00;93.30;;;;;;5032318;28;20034;-25
2022/09/20 01:27:22;;;;;;;2.88;1.10;;;17.00;93.30;;;;;;5024283;28;20045;-26
2022/09/20 01:29:47;;;;;;;1.05;0.75;;;17.00;93.60;;;;;;5031947;28;20067;-25
2022/09/20 01:32:18;;;;;;;1.60;0.98;;;17.00;93.30;;;;;;5031961;28;20413;-26
2022/09/20 01:34:58;;;;;;;2.25;0.95;;;17.00;93.20;;;;;;5031810;28;20022;-25
2022/09/20 01:37:31;;;;;;;1.67;0.90;;;17.00;93.30;;;;;;5031797;28;20152;-26
2022/09/20 01:40:17;;;;;;;1.67;0.88;;;17.00;93.20;;;;;;5031761;28;20041;-25
2022/09/20 01:43:14;;;;;;;4.65;1.10;;;17.00;93.20;;;;;;5031829;28;20021;-26
2022/09/20 01:45:48;;;;;;;2.88;1.25;;;17.00;93.20;;;;;;5029651;28;20037;-26
2022/09/20 01:48:26;;;;;;;2.75;1.10;;;17.00;93.20;;;;;;5031665;28;20033;-26
2022/09/20 01:51:03;;;;;;;2.33;1.00;;;17.00;93.20;;;;;;5034775;28;20029;-26
2022/09/20 01:53:50;;;;;;;1.35;0.77;;;17.00;93.20;;;;;;5035637;28;20185;-26
2022/09/20 01:56:40;;;;;;;2.03;0.80;;;16.90;93.10;;;;;;5035902;28;20044;-26
2022/09/20 01:59:23;;;;;;;2.40;1.08;;;17.00;93.20;;;;;;5035459;28;20025;-25
2022/09/20 02:01:52;;;;;;;2.83;1.10;;;16.90;93.10;;;;;;5035427;28;20546;-26
2022/09/20 02:04:17;;;;;;;2.40;1.17;;;16.90;93.10;;;;;;5035540;28;20104;-25
2022/09/20 02:07:08;;;;;;;3.03;1.02;;;17.00;93.10;;;;;;5035623;28;20068;-25
2022/09/20 02:09:52;;;;;;;2.28;1.08;;;16.90;93.10;;;;;;5035669;28;20039;-26
2022/09/20 02:12:29;;;;;;;3.20;0.75;;;16.90;93.10;;;;;;5035166;28;20516;-25
2022/09/20 02:15:40;;;;;;;2.67;1.08;;;17.00;93.10;;;;;;5035362;28;20025;-26
2022/09/20 02:18:32;;;;;;;3.33;1.20;;;16.90;93.00;;;;;;4993446;28;20026;-25
2022/09/20 02:21:07;;;;;;;2.58;1.10;;;17.00;93.10;;;;;;5035139;28;20501;-25
2022/09/20 02:23:59;;;;;;;1.98;0.80;;;16.90;93.10;;;;;;5035496;28;20425;-25
2022/09/20 02:26:39;;;;;;;4.68;1.00;;;16.90;93.10;;;;;;5034999;28;20025;-25
2022/09/20 02:29:20;;;;;;;2.60;0.90;;;16.90;93.00;;;;;;5034791;28;20040;-25
2022/09/20 02:32:13;;;;;;;2.78;0.93;;;16.90;93.00;;;;;;5034972;28;20071;-25
2022/09/20 02:34:45;;;;;;;1.60;1.02;;;16.90;93.00;;;;;;5035089;28;20018;-26
2022/09/20 02:37:34;;;;;;;1.95;1.00;;;16.90;93.00;;;;;;5034745;28;20049;-25
2022/09/20 02:40:19;;;;;;;2.50;0.90;;;16.90;93.00;;;;;;5034593;28;20467;-26
2022/09/20 02:42:58;;;;;;;3.92;1.00;;;16.90;93.00;;;;;;5034825;28;20539;-25
2022/09/20 02:45:41;;;;;;;3.63;0.90;;;16.90;93.00;;;;;;5034783;28;20040;-26
2022/09/20 02:48:07;;;;;;;4.63;1.02;;;16.90;93.00;;;;;;5034523;28;20474;-26
2022/09/20 02:50:48;;;;;;;2.10;0.82;;;16.90;93.00;;;;;;5034556;28;20034;-26
2022/09/20 02:53:28;;;;;;;2.22;0.90;;;16.90;92.90;;;;;;5034649;28;20036;-26
2022/09/20 02:56:05;;;;;;;1.77;0.70;;;16.90;92.90;;;;;;5034533;28;20156;-26
2022/09/20 02:58:58;;;;;;;2.83;0.90;;;16.90;92.90;;;;;;5034443;28;20100;-26
2022/09/20 03:01:27;;;;;;;3.97;0.90;;;16.90;92.90;;;;;;5034005;28;20039;-25
2022/09/20 03:04:04;;;;;;;1.85;0.90;;;16.90;92.90;;;;;;5034451;28;20022;-25
2022/09/20 03:06:42;;;;;;;2.35;0.93;;;16.80;92.80;;;;;;5034231;28;20029;-26
2022/09/20 03:09:24;;;;;;;1.38;0.80;;;16.90;92.90;;;;;;5034059;28;20060;-26
2022/09/20 03:12:28;;;;;;;1.13;0.95;;;16.90;93.20;;;;;;5034300;28;20491;-25
2022/09/20 03:15:09;;;;;;;2.67;1.00;;;16.80;92.80;;;;;;4992414;28;20156;-25
2022/09/20 03:17:51;;;;;;;3.40;0.98;;;16.80;92.80;;;;;;5030029;28;20045;-25
2022/09/20 03:20:28;;;;;;;3.13;1.00;;;16.80;92.80;;;;;;5033928;28;20028;-25
2022/09/20 03:23:09;;;;;;;2.00;0.80;;;16.80;92.80;;;;;;5034055;28;20025;-25
2022/09/20 03:25:48;;;;;;;1.80;0.88;;;16.80;92.80;;;;;;5034588;28;20018;-26
2022/09/20 03:28:49;;;;;;;1.35;0.80;;;16.80;92.80;;;;;;5033820;28;20437;-25
2022/09/20 03:31:23;;;;;;;3.28;1.00;;;16.80;92.80;;;;;;5033888;28;20017;-25
2022/09/20 03:33:57;;;;;;;2.85;0.80;;;16.80;92.80;;;;;;5034240;28;20356;-25
2022/09/20 03:37:00;;;;;;;2.47;0.82;;;16.80;92.80;;;;;;5033734;28;20382;-26
2022/09/20 03:39:49;;;;;;;2.28;0.65;;;16.80;92.80;;;;;;5033644;28;20021;-25
2022/09/20 03:42:23;;;;;;;1.15;0.77;;;16.80;92.80;;;;;;5033842;28;20108;-26
2022/09/20 03:45:13;;;;;;;1.83;0.70;;;16.80;92.80;;;;;;5033747;28;20025;-25
2022/09/20 03:48:06;;;;;;;2.08;0.90;;;16.80;92.80;;;;;;5033504;28;20030;-25
2022/09/20 03:51:28;;;;;;;1.52;0.80;;;16.80;92.70;;;;;;5033467;28;20052;-25
2022/09/20 03:53:56;;;;;;;1.45;0.70;;;16.80;92.70;;;;;;4991870;28;20055;-26
2022/09/20 03:56:33;;;;;;;2.08;0.85;;;16.80;92.70;;;;;;5031076;28;20034;-25
2022/09/20 03:59:13;;;;;;;1.08;0.47;;;16.80;92.80;;;;;;5033286;28;20026;-25
2022/09/20 04:02:23;;;;;;;2.15;0.73;;;16.80;92.80;;;;;;5033655;28;20036;-26
2022/09/20 04:04:51;;;;;;;1.33;0.70;;;16.70;92.70;;;;;;5033216;28;20061;-25
2022/09/20 04:07:38;;;;;;;1.63;0.95;;;16.80;92.80;;;;;;5033135;28;20037;-26
2022/09/20 04:10:12;;;;;;;1.67;0.73;;;16.80;92.80;;;;;;5033174;28;20068;-25
2022/09/20 04:12:46;;;;;;;2.78;0.73;;;16.80;92.70;;;;;;5032345;28;20030;-26
2022/09/20 04:15:42;;;;;;;1.02;0.60;;;16.80;92.70;;;;;;5033137;28;20033;-25
2022/09/20 04:18:41;;;;;;;1.90;0.70;;;16.80;92.70;;;;;;4979792;28;20034;-26
2022/09/20 04:21:23;;;;;;;2.05;0.80;;;16.80;92.70;;;;;;5025276;28;20035;-26
2022/09/20 04:23:57;;;;;;;1.55;0.70;;;16.80;92.70;;;;;;5033154;28;20025;-26
2022/09/20 04:26:28;;;;;;;1.80;0.70;;;16.80;92.70;;;;;;5032792;28;20033;-26
2022/09/20 04:29:20;;;;;;;1.05;0.60;;;16.80;92.70;;;;;;5032658;28;20037;-26
2022/09/20 04:31:49;;;;;;;1.83;0.60;;;16.80;92.70;;;;;;5032614;28;20025;-26
2022/09/20 04:36:27;;;;;;;3.53;1.02;;;16.80;92.70;;;;;;5032683;28;20021;-25
2022/09/20 04:37:31;;;;;;;3.30;0.63;;;16.70;92.70;;;;;;5032522;28;20040;-26
2022/09/20 04:40:13;;;;;;;3.88;0.60;;;16.70;93.00;;;;;;5032416;28;20359;-26
2022/09/20 04:43:12;;;;;;;1.63;0.80;;;16.70;92.70;;;;;;5032631;28;20059;-25
2022/09/20 04:46:10;;;;;;;1.20;0.60;;;16.70;92.70;;;;;;5032626;28;20029;-26
2022/09/20 04:49:15;;;;;;;2.35;0.90;;;16.70;92.70;;;;;;5032169;28;20438;-25
2022/09/20 04:52:10;;;;;;;1.03;0.63;;;16.70;92.70;;;;;;5032449;28;20525;-25
2022/09/20 04:54:47;;;;;;;1.88;0.80;;;16.70;92.70;;;;;;5031060;28;20433;-25
2022/09/20 04:57:40;;;;;;;1.80;0.80;;;16.70;92.70;;;;;;5032292;28;20021;-26
2022/09/20 05:00:19;;;;;;;2.15;0.82;;;16.70;92.70;;;;;;5032126;28;20522;-26
2022/09/20 05:03:16;;;;;;;1.33;0.80;;;16.70;92.70;;;;;;5031006;28;20507;-25
2022/09/20 05:06:15;;;;;;;1.20;0.80;;;16.70;92.70;;;;;;5031035;28;20022;-26
2022/09/20 05:08:49;;;;;;;2.35;0.82;;;16.70;92.80;;;;;;5015919;28;20037;-25
2022/09/20 05:11:30;;;;;;;1.92;1.02;;;16.70;92.70;;;;;;5032078;28;20033;-26
2022/09/20 05:14:21;;;;;;;4.38;0.90;;;16.70;92.70;;;;;;5032204;28;20053;-26
2022/09/20 05:17:29;;;;;;;5.10;1.00;;;16.70;92.80;;;;;;5032007;28;20021;-26
2022/09/20 05:20:24;;;;;;;2.42;0.85;;;16.70;92.80;;;;;;4990066;28;20053;-25
2022/09/20 05:23:08;;;;;;;2.05;0.90;;;16.60;92.80;;;;;;4990342;28;20515;-25
2022/09/20 05:25:37;;;;;;;2.33;0.95;;;16.70;92.80;;;;;;5024031;28;20048;-26
2022/09/20 05:28:10;;;;;;;1.98;0.60;;;16.70;92.80;;;;;;5031588;28;20083;-25
2022/09/20 05:30:44;;;;;;;2.42;1.05;;;16.70;92.80;;;;;;5031755;28;20026;-26
2022/09/20 05:33:12;;;;;;;1.80;0.70;;;16.70;92.80;;;;;;5031941;28;20021;-25
2022/09/20 05:36:06;;;;;;;8.13;0.98;;;16.70;92.80;;;;;;5031903;28;20053;-25
2022/09/20 05:38:51;;;;;;;0.98;0.70;;;16.60;92.80;;;;;;5031633;28;20026;-25
2022/09/20 05:41:53;;;;;;;1.45;0.98;;;16.60;92.80;;;;;;5031715;28;20092;-26
2022/09/20 05:44:30;;;;;;;1.98;0.85;;;16.60;92.80;;;;;;5031865;28;20091;-25
2022/09/20 05:47:20;;;;;;;2.25;1.08;;;16.70;92.90;;;;;;5031568;28;20056;-26
2022/09/20 05:50:11;;;;;;;1.90;1.00;;;16.70;92.90;;;;;;5031588;28;20026;-26
2022/09/20 05:53:14;;;;;;;1.73;1.00;;;16.60;92.90;;;;;;5031782;28;20017;-25
2022/09/20 05:56:18;;;;;;;3.00;1.00;;;16.60;92.90;;;;;;5031680;28;20063;-26
2022/09/20 05:59:19;;;;;;;2.07;0.90;;;16.60;93.00;;;;;;5031594;28;20160;-25
2022/09/20 06:02:08;;;;;;;2.20;0.90;;;16.60;93.00;;;;;;4989890;28;20105;-25
2022/09/20 06:05:09;;;;;;;4.43;1.15;;;16.60;93.00;;;;;;4984582;28;20581;-25
2022/09/20 06:08:07;;;;;;;2.70;1.13;;;16.60;93.00;;;;;;5031341;28;20048;-26
2022/09/20 06:11:00;;;;;;;2.00;0.90;;;16.60;93.00;;;;;;5031851;28;20075;-25
2022/09/20 06:13:41;;;;;;;1.38;0.98;;;16.60;93.00;;;;;;5031676;28;20041;-26
2022/09/20 06:16:16;;;;;;;3.00;1.00;;;16.60;93.10;;;;;;5031312;28;20424;-26
2022/09/20 06:19:20;;;;;;;1.45;0.95;;;16.60;93.10;;;;;;5031575;28;20108;-26
2022/09/20 06:21:57;;;;;;;1.70;0.90;;;16.60;93.10;;;;;;5031440;28;20018;-25
2022/09/20 06:24:49;;;;;;;2.47;0.80;;;16.60;93.10;;;;;;5031342;28;20116;-26
2022/09/20 06:27:29;;;;;;;3.70;1.20;;;16.60;93.10;;;;;;5054877;22;20401;-24
2022/09/20 06:30:00;;;;;;;3.78;1.10;;;16.60;93.10;;;;;;5031461;28;20025;-24
2022/09/20 06:32:26;;;;;;;2.42;0.98;;;16.50;93.10;;;;;;5031443;28;20021;-23
2022/09/20 06:34:53;;;;;;;1.63;1.10;;;16.60;93.20;;;;;;5030138;28;20076;-24
2022/09/20 06:43:30;;;;;;;3.92;0.90;;;16.60;93.20;;;;;;5035204;28;20051;-24
2022/09/20 06:45:56;;;;;;;2.53;1.00;;;16.50;93.20;;;;;;5034837;28;20022;-24
2022/09/20 06:48:23;;;;;;;2.55;0.98;;;16.60;93.30;;;;;;5034556;28;20389;-24
2022/09/20 06:50:51;;;;;;;1.17;0.70;;;16.60;93.30;;;;;;5034626;28;20403;-24
2022/09/20 06:53:29;;;;;;;2.80;0.90;;;16.50;93.20;;;;;;5034737;28;20044;-24
2022/09/20 06:55:55;;;;;;;1.77;1.00;;;16.50;93.20;;;;;;5033414;28;20025;-24
2022/09/20 06:58:21;;;;;;;2.42;0.90;;;16.60;93.30;;;;;;5034568;28;20029;-24
2022/09/20 07:00:47;;;;;;;3.08;1.00;;;16.60;93.30;;;;;;5034589;28;20071;-24
2022/09/20 07:03:13;;;;;;;2.05;0.90;;;16.60;93.30;;;;;;5034523;28;20030;-24
2022/09/20 07:05:39;;;;;;;1.17;0.90;;;16.50;93.30;;;;;;5034534;28;20095;-24
2022/09/20 07:08:04;;;;;;;3.65;1.25;;;16.60;93.30;;;;;;5034233;28;20035;-24
2022/09/20 07:10:30;;;;;;;2.17;1.00;;;16.60;93.70;;;;;;5034190;28;20033;-24
2022/09/20 07:13:00;;;;;;;2.50;0.98;;;16.60;93.40;;;;;;5034451;28;20323;-24
2022/09/20 07:15:27;;;;;;;2.78;0.90;;;16.50;93.40;;;;;;5034307;28;20067;-24
2022/09/20 07:17:54;;;;;;;2.60;0.80;;;16.60;93.40;;;;;;5034151;28;20028;-24
2022/09/20 07:20:20;;;;;;;2.20;1.00;;;16.60;93.40;;;;;;5034013;28;20030;-24
2022/09/20 07:22:46;;;;;;;1.50;0.70;;;16.60;93.30;;;;;;5034078;28;20029;-23
2022/09/20 07:25:12;;;;;;;1.42;0.82;;;16.60;93.40;;;;;;5034200;28;20033;-24
2022/09/20 07:27:38;;;;;;;2.33;1.10;;;16.70;93.30;;;;;;5033898;28;20040;-24
2022/09/20 07:30:05;;;;;;;1.42;0.73;;;16.70;93.30;;;;;;5033826;28;20083;-24
2022/09/20 07:32:31;;;;;;;1.27;0.82;;;16.70;93.30;;;;;;5034455;28;20100;-24
2022/09/20 07:34:57;;;;;;;2.30;1.00;;;16.70;93.30;;;;;;5032589;28;20121;-24
2022/09/20 07:37:22;;;;;;;1.33;0.90;;;16.80;93.30;;;;;;5033681;28;20051;-24
2022/09/20 07:39:48;;;;;;;2.15;0.88;;;16.80;93.30;;;;;;5032578;28;20478;-24
2022/09/20 07:42:14;;;;;;;2.25;0.88;;;16.80;93.40;;;;;;5034277;28;20041;-24
2022/09/20 07:44:41;;;;;;;1.80;1.05;;;16.80;93.40;;;;;;5033744;28;20467;-24
2022/09/20 07:47:09;;;;;;;1.60;0.80;;;16.80;93.40;;;;;;5033738;28;20026;-24
2022/09/20 07:49:35;;;;;;;3.08;1.15;;;16.80;93.70;;;;;;5033457;28;20026;-24
2022/09/20 07:52:00;;;;;;;2.45;0.82;;;16.80;93.40;;;;;;5033560;28;20026;-24
2022/09/20 07:54:27;;;;;;;2.05;0.85;;;16.80;93.40;;;;;;5034170;28;20123;-24
2022/09/20 07:56:53;;;;;;;3.40;0.93;;;16.80;93.40;;;;;;5033541;28;20021;-23
2022/09/20 07:59:18;;;;;;;1.52;0.82;;;16.80;93.40;;;;;;5032226;28;20029;-24
2022/09/20 08:01:44;;;;;;;1.50;0.82;;;16.90;93.40;;;;;;5033488;28;20026;-24
2022/09/20 08:04:10;;;;;;;3.20;0.90;;;16.90;93.40;;;;;;5033882;28;20456;-24
2022/09/20 08:06:37;;;;;;;2.58;0.88;;;16.90;93.30;;;;;;5033179;28;20495;-24
2022/09/20 08:09:04;;;;;;;2.20;0.93;;;17.00;93.30;;;;;;5032190;28;20429;-24
2022/09/20 08:11:30;;;;;;;2.03;0.98;;;17.00;93.30;;;;;;5033197;28;20021;-24
2022/09/20 08:13:58;;;;;;;1.58;0.90;;;17.10;93.20;;;;;;5033511;28;20022;-24
2022/09/20 08:16:25;;;;;;;1.65;0.80;;;17.20;93.20;;;;;;5033121;28;20021;-24
2022/09/20 08:18:57;;;;;;;2.97;0.90;;;17.20;93.10;;;;;;5032987;28;20097;-24
2022/09/20 08:21:24;;;;;;;2.70;0.80;;;17.30;93.10;;;;;;5033262;28;20478;-24
2022/09/20 08:23:50;;;;;;;2.13;0.90;;;17.30;93.10;;;;;;5033245;28;20470;-23
2022/09/20 08:26:19;;;;;;;2.33;0.88;;;17.30;93.00;;;;;;5032998;28;20082;-23
2022/09/20 08:28:46;;;;;;;1.27;0.73;;;17.30;93.00;;;;;;5032599;28;20034;-24
2022/09/20 08:31:20;;;;;;;2.15;0.88;;;17.40;93.00;;;;;;5032868;28;20017;-24
2022/09/20 08:33:46;;;;;;;;;;;17.40;93.00;;;;;;5033296;28;20048;-24
2022/09/20 08:36:15;;;;;;;2.13;0.90;;;17.40;93.00;;;;;;5032913;28;19964;-24
2022/09/20 08:38:41;;;;;;;1.77;0.85;;;17.40;93.30;;;;;;5032622;28;20029;-24
2022/09/20 08:41:17;;;;;;;2.10;0.70;;;17.40;93.00;;;;;;5032856;28;20029;-23
2022/09/20 08:43:50;;;;;;;3.05;0.93;;;17.40;93.00;;;;;;5032709;28;20029;-23
2022/09/20 08:46:21;;;;;;;1.45;0.70;;;17.30;93.00;;;;;;5032628;28;20108;-23
2022/09/20 08:48:47;;;;;;;1.65;0.88;;;17.30;93.10;;;;;;5032833;28;20132;-23
2022/09/20 08:51:15;;;;;;;2.03;0.82;;;17.30;93.10;;;;;;5032524;28;20033;-23
2022/09/20 08:53:52;;;;;;;1.00;0.70;;;17.30;93.10;;;;;;5032610;28;20391;-24
2022/09/20 08:56:19;;;;;;;2.60;0.75;;;17.30;93.10;;;;;;5032490;28;20022;-23
2022/09/20 08:58:45;;;;;;;1.52;0.60;;;17.30;93.20;;;;;;5032311;28;20033;-24
2022/09/20 09:01:23;;;;;;;0.85;0.57;;;17.30;93.20;;;;;;5032491;28;20371;-24
2022/09/20 09:04:20;;;;;;;2.03;0.77;;;17.30;93.20;;;;;;5032466;28;20048;-23
2022/09/20 09:06:46;;;;;;;3.25;0.90;;;17.40;93.20;;;;;;5023873;28;20069;-23
2022/09/20 09:09:24;;;;;;;3.35;0.70;;;17.40;93.10;;;;;;5031895;28;20029;-24
2022/09/20 09:11:51;;;;;;;1.65;0.70;;;17.50;93.10;;;;;;5032192;28;20032;-23
2022/09/20 09:14:47;;;;;;;2.13;0.80;;;17.40;93.00;;;;;;5032149;28;20506;-23
2022/09/20 09:17:24;;;;;;;1.38;0.80;;;17.40;93.10;;;;;;5031989;28;20028;-24
2022/09/20 09:19:56;;;;;;;3.58;0.75;;;17.40;93.10;;;;;;5032038;28;20021;-24
2022/09/20 09:22:38;;;;;;;1.67;0.73;;;17.40;93.10;;;;;;5032153;28;20075;-24
2022/09/20 09:25:15;;;;;;;2.65;0.80;;;17.40;93.10;;;;;;5032154;28;20028;-24
2022/09/20 09:27:56;;;;;;;2.17;0.90;;;17.40;93.10;;;;;;5031768;28;20391;-24
2022/09/20 09:30:25;;;;;;;2.10;0.70;;;17.30;93.20;;;;;;5031804;28;20029;-24
2022/09/20 09:32:52;;;;;;;1.75;0.80;;;17.40;93.20;;;;;;5032033;28;20033;-23
2022/09/20 09:35:29;;;;;;;1.67;0.80;;;17.40;93.20;;;;;;5031967;28;20068;-24
2022/09/20 09:38:00;;;;;;;1.35;0.70;;;17.40;93.20;;;;;;5031903;28;20025;-24
2022/09/20 09:40:28;;;;;;;2.60;0.75;;;17.30;93.20;;;;;;5031617;28;20056;-23
2022/09/20 09:42:56;;;;;;;1.65;0.90;;;17.30;93.20;;;;;;5032001;28;20022;-24
2022/09/20 09:45:27;;;;;;;2.05;0.90;;;17.30;93.30;;;;;;5031897;28;20014;-23
2022/09/20 09:47:54;;;;;;;4.18;0.85;;;17.30;93.30;;;;;;5030351;28;20105;-23
2022/09/20 09:50:38;;;;;;;1.38;0.70;;;17.30;93.30;;;;;;5031609;28;20029;-23
2022/09/20 09:53:23;;;;;;;1.70;0.52;;;17.20;93.40;;;;;;5031752;28;20014;-24
2022/09/20 09:56:10;;;;;;;2.50;0.80;;;17.10;93.40;;;;;;5030538;28;20506;-24
2022/09/20 09:58:42;;;;;;;1.67;0.68;;;17.20;93.40;;;;;;5031522;28;20434;-24
2022/09/20 10:01:28;;;;;;;2.58;0.70;;;17.10;93.50;;;;;;5030174;28;20021;-24
2022/09/20 10:04:20;;;;;;;2.42;0.68;;;17.10;93.50;;;;;;5031725;28;20056;-24
2022/09/20 10:07:14;;;;;;;3.80;0.77;;;17.10;93.50;;;;;;5031680;28;20017;-24
2022/09/20 10:09:46;;;;;;;1.60;0.60;;;17.10;93.50;;;;;;5026879;28;20038;-24
2022/09/20 10:12:31;;;;;;;2.13;0.65;;;17.10;93.50;;;;;;5035144;28;20056;-24
2022/09/20 10:15:09;;;;;;;;;;;17.00;93.60;;;;;;5035896;28;20140;-23
2022/09/20 10:17:46;;;;;;;2.92;0.85;;;17.00;93.60;;;;;;5035385;28;19951;-23
2022/09/20 10:20:40;;;;;;;2.33;1.00;;;17.00;93.60;;;;;;5035254;28;20060;-23
2022/09/20 10:23:41;;;;;;;2.55;0.75;;;17.00;93.60;;;;;;5035336;28;20026;-23
2022/09/20 10:26:38;;;;;;;3.28;0.70;;;17.00;93.60;;;;;;5035109;28;20022;-23
2022/09/20 10:29:33;;;;;;;2.00;0.75;;;17.00;93.60;;;;;;5034956;28;20478;-23
2022/09/20 10:32:25;;;;;;;1.92;0.75;;;17.00;93.60;;;;;;5035132;28;20036;-24
2022/09/20 10:35:13;;;;;;;1.98;0.40;;;17.00;93.70;;;;;;5035386;28;20050;-24
2022/09/20 10:38:18;;;;;;;1.25;0.60;;;17.00;93.70;;;;;;5034938;28;20387;-24
2022/09/20 10:43:55;;;;;;;1.25;0.60;;;17.00;93.60;;;;;;5032835;28;20000;-23
2022/09/20 10:46:36;;;;;;;2.00;0.60;;;17.00;93.60;;;;;;5034879;28;20024;-23
2022/09/20 10:49:16;;;;;;;1.90;0.60;;;17.00;93.60;;;;;;5034508;28;20036;-23
2022/09/20 10:52:11;;;;;;;0.88;0.50;;;17.00;93.60;;;;;;5034844;28;20418;-23
2022/09/20 10:54:39;;;;;;;;;;;17.00;93.60;;;;;;5040462;28;20045;-23
2022/09/20 10:57:25;;;;;;;;;;;17.00;93.60;;;;;;5038472;28;19951;-24
2022/09/20 11:00:03;;;;;;;;;;;17.00;93.60;;;;;;5014233;28;19905;-24
2022/09/20 11:02:40;;;;;;;;;;;17.00;93.70;;;;;;5035055;28;19911;-24
2022/09/20 11:05:24;;;;;;;;;;;16.90;93.60;;;;;;5035019;28;20364;-23
2022/09/20 11:07:55;;;;;;;;;;;17.00;93.60;;;;;;5034658;28;19909;-23
2022/09/20 11:10:23;;;;;;;;;;;16.90;93.60;;;;;;5034908;28;19905;-23
2022/09/20 11:13:00;;;;;;;;;;;16.90;92.00;;;;;;5034869;28;19905;-23
2022/09/20 11:15:31;;;;;;;;;;;16.80;89.90;;;;;;5034923;28;20409;-24
2022/09/20 11:18:20;;;;;;;;;;;16.70;90.30;;;;;;5034777;28;19983;-23
2022/09/20 11:20:49;;;;;;;;;;;16.60;90.70;;;;;;5034549;28;20286;-23
2022/09/20 11:23:24;;;;;;;;;;;16.60;91.00;;;;;;5034465;28;20011;-23
2022/09/20 11:25:50;;;;;;;;;;;16.70;91.20;;;;;;5034562;28;19909;-23
2022/09/20 11:28:26;;;;;;;;;;;16.60;91.40;;;;;;5034297;28;19912;-24
2022/09/20 11:30:51;;;;;;;;;;;16.70;91.50;;;;;;5034792;28;19959;-23
2022/09/20 11:33:29;;;;;;;;;;;16.70;92.00;;;;;;5034464;28;19909;-23
2022/09/20 11:35:58;;;;;;;;;;;16.70;91.80;;;;;;5034451;28;19905;-23
2022/09/20 11:38:42;;;;;;;;;;;16.80;91.90;;;;;;5034247;28;19909;-23
2022/09/20 11:41:12;;;;;;;;;;;16.90;92.00;;;;;;5034021;28;20416;-23
2022/09/20 11:43:41;;;;;;;;;;;16.90;91.90;;;;;;5034273;28;19905;-23
2022/09/20 11:46:09;;;;;;;;;;;17.00;91.90;;;;;;5032916;28;19905;-23
2022/09/20 11:48:42;;;;;;;;;;;17.10;91.80;;;;;;5033947;28;20294;-23
2022/09/20 11:51:26;;;;;;;;;;;17.20;91.80;;;;;;5032876;28;19905;-23
2022/09/20 11:54:05;;;;;;;;;;;17.30;91.80;;;;;;5032899;28;20329;-23
2022/09/20 11:56:32;;;;;;;;;;;17.30;91.70;;;;;;5032720;28;19905;-24
2022/09/20 11:58:59;;;;;;;;;;;17.40;91.70;;;;;;5033883;28;20000;-24
2022/09/20 12:01:38;;;;;;;;;;;17.50;91.70;;;;;;5033770;28;19927;-23
2022/09/20 12:04:10;;;;;;;;;;;17.50;91.70;;;;;;5033826;28;19996;-24
2022/09/20 12:06:37;;;;;;;;;;;17.50;91.70;;;;;;5033758;28;19913;-24
2022/09/20 12:09:05;;;;;;;;;;;17.50;91.70;;;;;;5033528;28;20369;-23
2022/09/20 12:11:34;;;;;;;;;;;17.50;91.70;;;;;;5033703;28;19909;-23
2022/09/20 12:14:03;;;;;;;;;;;17.50;91.70;;;;;;5033714;28;19913;-24
2022/09/20 12:16:42;;;;;;;;;;;17.50;91.80;;;;;;5033452;28;20355;-23
2022/09/20 12:19:20;;;;;;;;;;;17.40;86.40;;;;;;5032162;28;19905;-23
2022/09/20 12:21:57;;;;;;;;;;;17.40;87.30;;;;;;5033460;28;20074;-23
2022/09/20 12:24:24;;;;;;;;;;;17.40;87.20;;;;;;5033428;28;19905;-23
2022/09/20 12:26:51;;;;;;;;;;;17.40;87.50;;;;;;5033759;28;19999;-24
2022/09/20 12:29:22;;;;;;;;;;;17.50;87.80;;;;;;5033117;28;20358;-23
2022/09/20 12:31:48;;;;;;;;;;;17.50;88.30;;;;;;5033338;28;20382;-23
2022/09/20 12:34:14;;;;;;;;;;;17.60;88.90;;;;;;5032615;28;20267;-23
2022/09/20 12:36:43;;;;;;;;;;;17.50;85.40;;;;;;5033214;28;20316;-23
2022/09/20 12:39:11;;;;;;;;;;;17.40;83.90;;;;;;5033061;28;19912;-23
2022/09/20 12:41:44;;;;;;;;;;;17.20;82.60;;;;;;5032863;28;19912;-23
2022/09/20 12:44:29;;;;;;;;;;;17.10;82.30;;;;;;5032216;28;19931;-23
2022/09/20 12:47:15;;;;;;;;;;;17.10;82.70;;;;;;5033268;28;20247;-24
2022/09/20 12:52:49;;;;;;;;;;;17.30;82.40;;;;;;5033286;28;19950;-23
2022/09/20 12:55:32;;;;;;;;;;;17.50;83.10;;;;;;5032944;28;19905;-23
2022/09/20 12:58:13;;;;;;;;;;;17.70;83.60;;;;;;5031640;28;19936;-23
2022/09/20 13:00:39;;;;;;;;;;;17.80;84.00;;;;;;5032701;28;19932;-23
2022/09/20 13:03:14;;;;;;;;;;;17.90;84.50;;;;;;5032991;28;19912;-23
2022/09/20 13:05:41;;;;;;;;;;;17.90;84.80;;;;;;5033316;28;19931;-23
2022/09/20 13:08:24;;;;;;;;;;;17.90;85.10;;;;;;5033241;28;20271;-23
2022/09/20 13:10:56;;;;;;;;;;;18.00;85.40;;;;;;5033040;28;19951;-23
2022/09/20 13:13:31;;;;;;;;;;;18.00;85.70;;;;;;5033387;28;20362;-24
2022/09/20 13:15:57;;;;;;;;;;;18.00;85.90;;;;;;5032778;28;20359;-23
2022/09/20 13:18:24;;;;;;;;;;;18.00;86.20;;;;;;5032512;28;19912;-23
2022/09/20 13:20:50;;;;;;;;;;;18.00;86.50;;;;;;5032456;28;19912;-24
2022/09/20 13:23:21;;;;;;;;;;;18.00;86.70;;;;;;5032906;28;19945;-23
2022/09/20 13:25:47;;;;;;;;;;;18.00;87.10;;;;;;5032702;28;19933;-24
2022/09/20 13:28:18;;;;;;;;;;;18.00;87.20;;;;;;5032297;28;19948;-23
2022/09/20 13:30:44;;;;;;;;;;;18.00;87.40;;;;;;5032389;28;19944;-23
2022/09/20 13:33:23;;;;;;;;;;;18.00;87.80;;;;;;5032696;28;19909;-23
2022/09/20 13:35:51;;;;;;;;;;;18.00;88.00;;;;;;5033072;28;19912;-24
2022/09/20 13:38:23;;;;;;;;;;;17.90;88.00;;;;;;5032475;28;19920;-24
2022/09/20 13:40:50;;;;;;;;;;;17.90;88.20;;;;;;5032306;28;19905;-23
2022/09/20 13:43:34;;;;;;;;;;;18.00;88.40;;;;;;5032394;28;19931;-24
2022/09/20 13:46:07;;;;;;;;;;;17.90;88.60;;;;;;5035774;28;20407;-24
2022/09/20 13:48:33;;;;;;;;;;;18.00;88.80;;;;;;5036815;28;19952;-23
2022/09/20 13:50:58;;;;;;;;;;;18.00;88.90;;;;;;5036228;28;19912;-23
2022/09/20 13:53:25;;;;;;;;;;;17.90;88.90;;;;;;5036437;28;19912;-23
2022/09/20 13:55:51;;;;;;;;;;;17.90;89.10;;;;;;5036403;28;19909;-23
2022/09/20 13:58:19;;;;;;;;;;;17.90;89.30;;;;;;5036161;28;19905;-23
2022/09/20 14:00:46;;;;;;;;;;;17.80;89.40;;;;;;5036153;28;19905;-23
2022/09/20 14:03:15;;;;;;;;;;;17.80;89.40;;;;;;5036225;28;19912;-23
2022/09/20 14:05:45;;;;;;;;;;;17.80;89.50;;;;;;5037167;28;20373;-24
2022/09/20 14:08:17;;;;;;;;;;;17.80;89.60;;;;;;5039407;28;19971;-23
2022/09/20 14:10:44;;;;;;;;;;;17.90;89.80;;;;;;5037055;28;19951;-23
2022/09/20 14:13:16;;;;;;;;;;;17.80;89.80;;;;;;5036032;28;19958;-23